createdAt,value
2018-07-30T00:01:16.954Z,56.73
2018-07-30T00:03:45.567Z,56.44
2018-07-30T00:06:14.122Z,56.67
2018-07-30T00:08:42.905Z,56.63
2018-07-30T00:11:11.466Z,56.45
2018-07-30T00:13:39.981Z,56.73
2018-07-30T00:16:08.563Z,56.42
2018-07-30T00:18:37.152Z,56.72
2018-07-30T00:21:05.801Z,56.77
2018-07-30T00:23:34.374Z,56.41
2018-07-30T00:26:02.990Z,56.53
2018-07-30T00:28:31.616Z,56.47
2018-07-30T00:31:00.160Z,56.61
2018-07-30T00:33:28.814Z,56.67
2018-07-30T00:35:57.635Z,56.43
2018-07-30T00:38:26.208Z,56.89
2018-07-30T00:40:54.825Z,56.41
2018-07-30T00:43:23.337Z,56.74
2018-07-30T00:45:51.851Z,56.34
2018-07-30T00:48:20.524Z,56.34
2018-07-30T00:50:49.140Z,56.31
2018-07-30T00:53:17.677Z,56.39
2018-07-30T00:55:46.329Z,56.33
2018-07-30T00:58:14.899Z,56.02
2018-07-30T01:00:43.467Z,56.47
2018-07-30T01:03:12.005Z,56.47
2018-07-30T01:05:40.515Z,56.46
2018-07-30T01:08:09.108Z,56.42
2018-07-30T01:10:37.741Z,56.27
2018-07-30T01:13:06.256Z,56.31
2018-07-30T01:15:35.212Z,56.53
2018-07-30T01:18:03.764Z,56.41
2018-07-30T01:20:32.310Z,56.07
2018-07-30T01:23:00.848Z,56.58
2018-07-30T01:25:29.847Z,56.60
2018-07-30T01:27:58.413Z,56.48
2018-07-30T01:30:27.059Z,56.62
2018-07-30T01:32:55.701Z,56.66
2018-07-30T01:35:24.210Z,56.76
2018-07-30T01:37:52.744Z,57.05
2018-07-30T01:40:21.276Z,57.10
2018-07-30T01:42:49.844Z,56.91
2018-07-30T01:45:18.390Z,56.95
2018-07-30T01:47:46.887Z,57.26
2018-07-30T01:50:15.448Z,57.19
2018-07-30T01:52:44.001Z,57.32
2018-07-30T01:55:12.749Z,57.45
2018-07-30T01:57:41.363Z,57.88
2018-07-30T02:00:10.161Z,57.37
2018-07-30T02:02:43.017Z,57.49
2018-07-30T02:05:12.072Z,57.62
2018-07-30T02:07:41.757Z,57.70
2018-07-30T02:10:11.419Z,57.65
2018-07-30T02:12:40.317Z,57.82
2018-07-30T02:15:09.476Z,57.73
2018-07-30T02:17:38.083Z,57.69
2018-07-30T02:20:07.077Z,57.85
2018-07-30T02:22:35.780Z,57.93
2018-07-30T02:25:04.571Z,57.86
2018-07-30T02:27:33.147Z,57.83
2018-07-30T02:30:01.896Z,57.83
2018-07-30T02:32:30.380Z,57.68
2018-07-30T02:34:58.885Z,57.84
2018-07-30T02:37:27.424Z,58.07
2018-07-30T02:39:56.037Z,57.86
2018-07-30T02:42:24.540Z,57.93
2018-07-30T02:44:53.149Z,57.87
2018-07-30T02:47:21.693Z,57.80
2018-07-30T02:49:50.319Z,57.84
2018-07-30T02:52:19.003Z,57.89
2018-07-30T02:54:47.501Z,57.84
2018-07-30T02:57:16.025Z,57.85
2018-07-30T02:59:44.541Z,57.81
2018-07-30T03:02:13.080Z,57.80
2018-07-30T03:04:41.752Z,58.04
2018-07-30T03:07:10.303Z,56.14
2018-07-30T03:09:38.788Z,58.38
2018-07-30T03:12:07.785Z,59.02
2018-07-30T03:14:36.748Z,60.63
2018-07-30T03:17:05.806Z,62.15
2018-07-30T03:19:34.456Z,63.90
2018-07-30T03:22:02.994Z,65.24
2018-07-30T03:24:31.513Z,65.87
2018-07-30T03:27:00.305Z,66.29
2018-07-30T03:29:29.176Z,66.62
2018-07-30T03:31:58.118Z,67.11
2018-07-30T03:34:27.018Z,67.55
2018-07-30T03:36:55.944Z,67.94
2018-07-30T03:39:24.620Z,67.79
2018-07-30T03:41:53.518Z,68.33
2018-07-30T03:44:22.395Z,69.52
2018-07-30T03:46:51.275Z,69.77
2018-07-30T03:49:20.144Z,70.78
2018-07-30T03:51:49.169Z,71.84
2018-07-30T03:54:18.114Z,73.04
2018-07-30T03:56:46.927Z,72.29
2018-07-30T03:59:15.955Z,71.99
2018-07-30T04:01:44.836Z,72.45
2018-07-30T04:04:13.784Z,72.55
2018-07-30T04:06:42.523Z,73.94
2018-07-30T04:09:11.278Z,74.52
2018-07-30T04:11:40.101Z,73.56
2018-07-30T04:14:08.957Z,72.27
2018-07-30T04:16:44.724Z,71.62
2018-07-30T04:19:13.625Z,71.59
2018-07-30T04:21:42.653Z,70.71
2018-07-30T04:24:11.819Z,69.60
2018-07-30T04:26:40.878Z,69.32
2018-07-30T04:29:09.789Z,68.37
2018-07-30T04:31:38.716Z,68.26
2018-07-30T04:34:07.744Z,67.13
2018-07-30T04:36:37.028Z,66.81
2018-07-30T04:39:08.688Z,66.59
2018-07-30T04:41:37.443Z,66.22
2018-07-30T04:44:06.520Z,65.79
2018-07-30T04:46:35.581Z,65.68
2018-07-30T04:49:04.489Z,64.33
2018-07-30T04:51:33.843Z,64.49
2018-07-30T04:54:02.894Z,63.68
2018-07-30T04:56:31.841Z,63.47
2018-07-30T04:59:00.777Z,63.90
2018-07-30T05:01:29.975Z,63.54
2018-07-30T05:03:58.875Z,63.85
2018-07-30T05:06:27.768Z,63.14
2018-07-30T05:08:56.952Z,62.86
2018-07-30T05:11:25.794Z,63.34
2018-07-30T05:13:54.652Z,62.97
2018-07-30T05:16:23.663Z,62.55
2018-07-30T05:18:52.707Z,62.87
2018-07-30T05:21:21.514Z,62.92
2018-07-30T05:23:50.605Z,62.23
2018-07-30T05:26:19.551Z,62.24
2018-07-30T05:28:48.434Z,61.84
2018-07-30T05:31:17.508Z,61.44
2018-07-30T05:33:46.513Z,61.29
2018-07-30T05:36:15.386Z,61.14
2018-07-30T05:38:44.292Z,61.34
2018-07-30T05:41:13.151Z,61.74
2018-07-30T05:43:42.145Z,61.37
2018-07-30T05:46:11.138Z,61.49
2018-07-30T05:48:40.022Z,61.31
2018-07-30T05:51:08.920Z,61.46
2018-07-30T05:53:37.870Z,61.37
2018-07-30T05:56:08.025Z,61.26
2018-07-30T05:58:37.009Z,61.36
2018-07-30T06:01:05.911Z,61.21
2018-07-30T06:03:34.833Z,60.84
2018-07-30T06:06:03.757Z,60.86
2018-07-30T06:08:32.572Z,60.53
2018-07-30T06:11:01.464Z,60.47
2018-07-30T06:13:30.363Z,60.32
2018-07-30T06:15:59.205Z,60.30
2018-07-30T06:18:27.974Z,60.00
2018-07-30T06:20:56.888Z,59.98
2018-07-30T06:23:25.841Z,59.75
2018-07-30T06:25:54.842Z,59.66
2018-07-30T06:28:23.717Z,59.58
2018-07-30T06:30:52.377Z,59.42
2018-07-30T06:33:21.127Z,59.10
2018-07-30T06:35:50.292Z,59.01
2018-07-30T06:38:19.231Z,59.06
2018-07-30T06:40:48.362Z,58.98
2018-07-30T06:43:17.387Z,58.71
2018-07-30T06:45:46.339Z,58.73
2018-07-30T06:48:15.168Z,58.34
2018-07-30T06:50:44.304Z,58.66
2018-07-30T06:53:13.350Z,58.63
2018-07-30T06:55:42.172Z,58.32
2018-07-30T06:58:11.174Z,58.26
2018-07-30T07:00:40.132Z,58.30
2018-07-30T07:03:09.067Z,58.38
2018-07-30T07:05:37.969Z,58.24
2018-07-30T07:08:06.884Z,58.18
2018-07-30T07:10:35.790Z,57.88
2018-07-30T07:13:04.734Z,57.95
2018-07-30T07:15:33.883Z,57.96
2018-07-30T07:18:02.758Z,58.04
2018-07-30T07:20:31.687Z,57.90
2018-07-30T07:23:00.539Z,57.74
2018-07-30T07:25:29.624Z,57.60
2018-07-30T07:27:58.608Z,57.68
2018-07-30T07:30:27.589Z,57.59
2018-07-30T07:32:56.467Z,57.61
2018-07-30T07:35:25.276Z,57.41
2018-07-30T07:37:54.139Z,57.45
2018-07-30T07:40:23.044Z,57.50
2018-07-30T07:42:52.119Z,57.34
2018-07-30T07:45:21.147Z,57.46
2018-07-30T07:47:50.187Z,57.42
2018-07-30T07:50:19.270Z,57.20
2018-07-30T07:52:48.151Z,57.23
2018-07-30T07:55:16.997Z,57.19
2018-07-30T07:57:45.839Z,57.18
2018-07-30T08:00:14.703Z,57.21
2018-07-30T08:02:43.534Z,57.12
2018-07-30T08:05:12.380Z,56.96
2018-07-30T08:07:41.323Z,56.89
2018-07-30T08:10:10.142Z,56.89
2018-07-30T08:12:38.875Z,56.77
2018-07-30T08:15:08.544Z,56.74
2018-07-30T08:17:37.297Z,56.64
2018-07-30T08:20:07.241Z,56.59
2018-07-30T08:22:36.060Z,56.36
2018-07-30T08:25:06.520Z,56.36
2018-07-30T08:27:35.234Z,56.23
2018-07-30T08:30:04.001Z,56.16
2018-07-30T08:32:32.741Z,56.21
2018-07-30T08:35:01.555Z,56.17
2018-07-30T08:37:30.336Z,56.16
2018-07-30T08:39:59.158Z,56.12
2018-07-30T08:42:27.998Z,56.01
2018-07-30T08:44:56.843Z,56.00
2018-07-30T08:47:25.713Z,55.88
2018-07-30T08:49:54.618Z,55.80
2018-07-30T08:52:23.414Z,55.85
2018-07-30T08:54:52.626Z,55.88
2018-07-30T08:57:21.362Z,55.77
2018-07-30T08:59:50.436Z,55.68
2018-07-30T09:02:19.431Z,55.71
2018-07-30T09:04:48.244Z,55.69
2018-07-30T09:07:17.444Z,55.58
2018-07-30T09:09:46.539Z,55.54
2018-07-30T09:12:15.292Z,55.66
2018-07-30T09:14:44.099Z,55.70
2018-07-30T09:17:14.047Z,55.70
2018-07-30T09:19:42.785Z,55.54
2018-07-30T09:22:11.398Z,55.53
2018-07-30T09:24:39.895Z,55.45
2018-07-30T09:27:08.612Z,55.43
2018-07-30T09:29:37.263Z,55.56
2018-07-30T09:32:05.951Z,55.39
2018-07-30T09:34:34.806Z,55.40
2018-07-30T09:37:03.586Z,55.31
2018-07-30T09:39:32.433Z,55.35
2018-07-30T09:42:01.122Z,55.39
2018-07-30T09:44:29.798Z,55.23
2018-07-30T09:46:58.589Z,55.24
2018-07-30T09:49:27.321Z,55.13
2018-07-30T09:51:56.057Z,55.40
2018-07-30T09:54:24.866Z,55.28
2018-07-30T09:56:53.544Z,55.15
2018-07-30T09:59:22.215Z,55.02
2018-07-30T10:01:50.901Z,55.12
2018-07-30T10:04:19.637Z,54.90
2018-07-30T10:06:48.361Z,55.01
2018-07-30T10:09:17.047Z,55.08
2018-07-30T10:11:45.720Z,54.80
2018-07-30T10:14:14.393Z,54.97
2018-07-30T10:16:43.114Z,54.99
2018-07-30T10:19:11.908Z,54.95
2018-07-30T10:21:40.580Z,54.97
2018-07-30T10:24:09.358Z,55.00
2018-07-30T10:26:38.033Z,54.87
2018-07-30T10:29:06.645Z,54.78
2018-07-30T10:31:35.696Z,54.98
2018-07-30T10:34:04.563Z,54.77
2018-07-30T10:36:33.317Z,54.81
2018-07-30T10:39:02.260Z,54.88
2018-07-30T10:41:31.092Z,54.91
2018-07-30T10:44:00.025Z,54.94
2018-07-30T10:46:28.902Z,54.87
2018-07-30T10:48:57.951Z,54.77
2018-07-30T10:51:26.764Z,54.86
2018-07-30T10:53:55.741Z,54.81
2018-07-30T10:56:24.365Z,54.65
2018-07-30T10:58:53.168Z,54.73
2018-07-30T11:01:21.841Z,54.65
2018-07-30T11:03:50.549Z,54.62
2018-07-30T11:06:19.199Z,54.54
2018-07-30T11:08:47.985Z,54.82
2018-07-30T11:11:16.718Z,54.83
2018-07-30T11:13:45.443Z,54.60
2018-07-30T11:16:14.232Z,54.73
2018-07-30T11:18:42.933Z,54.35
2018-07-30T11:21:11.584Z,54.78
2018-07-30T11:23:40.195Z,54.69
2018-07-30T11:26:08.873Z,55.00
2018-07-30T11:28:37.658Z,54.75
2018-07-30T11:31:06.307Z,54.83
2018-07-30T11:33:35.111Z,54.70
2018-07-30T11:36:03.934Z,54.86
2018-07-30T11:38:32.560Z,54.83
2018-07-30T11:41:01.277Z,55.04
2018-07-30T11:43:29.987Z,54.81
2018-07-30T11:45:58.624Z,54.87
2018-07-30T11:48:27.414Z,54.91
2018-07-30T11:50:56.043Z,55.04
2018-07-30T11:53:24.682Z,54.82
2018-07-30T11:55:53.293Z,54.61
2018-07-30T11:58:22.048Z,54.96
2018-07-30T12:00:50.742Z,54.84
2018-07-30T12:03:19.464Z,54.38
2018-07-30T12:05:48.218Z,54.89
2018-07-30T12:08:16.853Z,54.76
2018-07-30T12:10:45.472Z,54.80
2018-07-30T12:13:14.267Z,54.74
2018-07-30T12:15:43.078Z,54.62
2018-07-30T12:18:11.905Z,54.86
2018-07-30T12:20:40.706Z,54.70
2018-07-30T12:23:09.465Z,54.76
2018-07-30T12:25:38.284Z,55.15
2018-07-30T12:28:07.012Z,55.19
2018-07-30T12:30:35.777Z,54.71
2018-07-30T12:33:04.429Z,54.96
2018-07-30T12:35:33.158Z,54.78
2018-07-30T12:38:01.905Z,55.92
2018-07-30T12:40:34.798Z,55.31
2018-07-30T12:43:05.122Z,55.01
2018-07-30T12:45:38.961Z,64.02
2018-07-30T12:48:07.672Z,60.68
2018-07-30T12:50:36.948Z,58.52
2018-07-30T12:53:05.686Z,58.08
2018-07-30T12:55:34.815Z,57.05
2018-07-30T12:58:03.681Z,57.55
2018-07-30T13:00:32.479Z,57.57
2018-07-30T13:03:01.432Z,57.93
2018-07-30T13:05:30.063Z,57.68
2018-07-30T13:07:58.836Z,56.90
2018-07-30T13:10:27.645Z,57.22
2018-07-30T13:12:56.331Z,56.89
2018-07-30T13:15:25.123Z,56.86
2018-07-30T13:17:53.786Z,56.70
2018-07-30T13:20:22.564Z,56.47
2018-07-30T13:22:51.275Z,60.67
2018-07-30T13:25:20.042Z,67.94
2018-07-30T13:27:48.801Z,68.87
2018-07-30T13:30:17.504Z,64.31
2018-07-30T13:32:46.246Z,63.09
2018-07-30T13:35:14.924Z,63.74
2018-07-30T13:37:43.654Z,63.65
2018-07-30T13:40:12.509Z,63.03
2018-07-30T13:42:41.287Z,62.44
2018-07-30T13:45:10.235Z,62.55
2018-07-30T13:47:39.142Z,61.76
2018-07-30T13:50:08.938Z,61.08
2018-07-30T13:52:37.744Z,61.20
2018-07-30T13:55:07.296Z,60.27
2018-07-30T13:57:36.293Z,60.08
2018-07-30T14:00:06.971Z,60.15
2018-07-30T14:02:35.719Z,60.05
2018-07-30T14:05:04.444Z,60.23
2018-07-30T14:07:33.154Z,59.57
2018-07-30T14:10:01.840Z,59.41
2018-07-30T14:12:30.560Z,59.72
2018-07-30T14:14:59.281Z,58.90
2018-07-30T14:17:27.948Z,59.73
2018-07-30T14:19:56.846Z,59.98
2018-07-30T14:22:25.569Z,58.43
2018-07-30T14:24:54.452Z,58.24
2018-07-30T14:27:23.478Z,58.15
2018-07-30T14:29:52.275Z,58.42
2018-07-30T14:32:21.094Z,58.23
2018-07-30T14:34:49.939Z,58.44
2018-07-30T14:37:18.823Z,58.48
2018-07-30T14:39:47.845Z,57.70
2018-07-30T14:42:16.589Z,58.17
2018-07-30T14:44:45.367Z,58.33
2018-07-30T14:47:14.307Z,57.76
2018-07-30T14:49:43.053Z,57.42
2018-07-30T14:52:11.723Z,58.33
2018-07-30T14:54:40.485Z,57.84
2018-07-30T14:57:09.206Z,57.92
2018-07-30T14:59:37.996Z,57.97
2018-07-30T15:02:06.927Z,57.12
2018-07-30T15:04:35.899Z,57.52
2018-07-30T15:07:04.899Z,57.28
2018-07-30T15:09:33.796Z,57.33
2018-07-30T15:12:03.013Z,57.68
2018-07-30T15:14:32.280Z,56.88
2018-07-30T15:17:01.393Z,57.28
2018-07-30T15:19:30.419Z,57.09
2018-07-30T15:21:59.545Z,57.70
2018-07-30T15:24:28.677Z,57.32
2018-07-30T15:26:57.645Z,56.84
2018-07-30T15:29:26.577Z,56.92
2018-07-30T15:31:55.514Z,57.48
2018-07-30T15:34:24.362Z,57.01
2018-07-30T15:36:53.063Z,57.12
2018-07-30T15:39:22.034Z,57.04
2018-07-30T15:41:50.913Z,56.83
2018-07-30T15:44:19.945Z,56.81
2018-07-30T15:46:48.818Z,57.20
2018-07-30T15:49:17.622Z,57.05
2018-07-30T15:51:46.563Z,57.39
2018-07-30T15:54:15.736Z,57.08
2018-07-30T15:56:44.627Z,57.13
2018-07-30T15:59:13.917Z,56.82
2018-07-30T16:01:42.892Z,56.50
2018-07-30T16:04:11.980Z,57.19
2018-07-30T16:06:40.804Z,56.65
2018-07-30T16:09:09.684Z,57.40
2018-07-30T16:11:38.839Z,57.31
2018-07-30T16:14:07.826Z,57.10
2018-07-30T16:16:36.672Z,57.03
2018-07-30T16:19:05.572Z,57.26
2018-07-30T16:21:34.736Z,57.26
2018-07-30T16:24:03.837Z,57.28
2018-07-30T16:26:32.698Z,57.22
2018-07-30T16:29:01.562Z,56.86
2018-07-30T16:31:30.575Z,57.41
2018-07-30T16:33:59.498Z,57.29
2018-07-30T16:36:28.276Z,57.24
2018-07-30T16:38:57.161Z,58.02
2018-07-30T16:41:26.244Z,57.34
2018-07-30T16:43:55.308Z,56.81
2018-07-30T16:46:24.099Z,56.84
2018-07-30T16:48:53.016Z,57.13
2018-07-30T16:51:21.894Z,56.77
2018-07-30T16:53:50.745Z,56.79
2018-07-30T16:56:19.707Z,57.13
2018-07-30T16:58:48.747Z,57.66
2018-07-30T17:01:17.432Z,57.21
2018-07-30T17:03:46.254Z,56.67
2018-07-30T17:06:15.392Z,56.78
2018-07-30T17:08:44.465Z,57.65
2018-07-30T17:11:13.212Z,56.99
2018-07-30T17:13:41.736Z,57.05
2018-07-30T17:16:10.634Z,57.53
2018-07-30T17:18:39.943Z,58.11
2018-07-30T17:21:08.861Z,56.97
2018-07-30T17:23:37.770Z,57.99
2018-07-30T17:26:06.652Z,57.60
2018-07-30T17:28:35.686Z,58.06
2018-07-30T17:31:04.557Z,57.65
2018-07-30T17:33:33.525Z,57.20
2018-07-30T17:36:02.548Z,57.18
2018-07-30T17:38:31.311Z,55.74
2018-07-30T17:41:00.426Z,55.50
2018-07-30T17:43:29.371Z,55.74
2018-07-30T17:45:58.218Z,55.30
2018-07-30T17:48:27.380Z,54.84
2018-07-30T17:50:56.276Z,54.04
2018-07-30T17:53:25.321Z,53.67
2018-07-30T17:55:54.156Z,53.94
2018-07-30T17:58:23.196Z,53.80
2018-07-30T18:00:52.267Z,53.43
2018-07-30T18:03:21.216Z,53.88
2018-07-30T18:05:50.239Z,53.54
2018-07-30T18:08:19.033Z,53.55
2018-07-30T18:10:48.286Z,53.81
2018-07-30T18:13:16.793Z,54.15
2018-07-30T18:15:45.545Z,53.31
2018-07-30T18:18:14.146Z,53.58
2018-07-30T18:20:42.701Z,52.50
2018-07-30T18:23:11.572Z,52.47
2018-07-30T18:25:40.732Z,51.99
2018-07-30T18:28:09.981Z,52.73
2018-07-30T18:30:38.934Z,52.23
2018-07-30T18:33:08.145Z,52.34
2018-07-30T18:35:37.256Z,52.45
2018-07-30T18:38:06.233Z,52.04
2018-07-30T18:40:35.316Z,52.10
2018-07-30T18:43:04.470Z,53.07
2018-07-30T18:45:33.292Z,52.28
2018-07-30T18:48:02.362Z,53.43
2018-07-30T18:50:31.135Z,52.77
2018-07-30T18:53:00.178Z,53.15
2018-07-30T18:55:29.048Z,53.19
2018-07-30T18:57:57.882Z,53.48
2018-07-30T19:00:26.857Z,53.47
2018-07-30T19:02:55.756Z,53.98
2018-07-30T19:05:24.540Z,53.78
2018-07-30T19:07:53.433Z,54.14
2018-07-30T19:10:22.286Z,53.28
2018-07-30T19:12:51.111Z,54.22
2018-07-30T19:15:19.991Z,53.84
2018-07-30T19:17:48.876Z,53.98
2018-07-30T19:20:17.672Z,53.71
2018-07-30T19:22:46.561Z,54.40
2018-07-30T19:25:15.374Z,53.94
2018-07-30T19:27:44.380Z,54.22
2018-07-30T19:30:13.181Z,54.13
2018-07-30T19:32:41.656Z,54.00
2018-07-30T19:35:10.131Z,53.87
2018-07-30T19:37:38.636Z,54.62
2018-07-30T19:40:07.489Z,54.54
2018-07-30T19:42:36.392Z,54.22
2018-07-30T19:45:05.352Z,54.41
2018-07-30T19:47:34.362Z,54.37
2018-07-30T19:50:03.550Z,54.96
2018-07-30T19:52:32.429Z,54.06
2018-07-30T19:55:01.351Z,54.00
2018-07-30T19:57:30.305Z,54.21
2018-07-30T19:59:59.276Z,54.19
2018-07-30T20:02:28.765Z,54.41
2018-07-30T20:04:58.328Z,54.87
2018-07-30T20:07:27.333Z,54.60
2018-07-30T20:09:56.139Z,54.30
2018-07-30T20:12:25.107Z,54.80
2018-07-30T20:14:53.997Z,53.96
2018-07-30T20:17:22.896Z,54.01
2018-07-30T20:19:51.640Z,54.44
2018-07-30T20:22:20.166Z,54.56
2018-07-30T20:24:49.083Z,54.35
2018-07-30T20:27:17.548Z,54.77
2018-07-30T20:29:46.040Z,54.89
2018-07-30T20:32:14.535Z,54.48
2018-07-30T20:34:43.058Z,54.08
2018-07-30T20:37:11.541Z,54.53
2018-07-30T20:39:40.012Z,54.62
2018-07-30T20:42:08.617Z,54.79
2018-07-30T20:44:37.904Z,54.68
2018-07-30T20:47:06.955Z,54.44
2018-07-30T20:49:36.001Z,54.66
2018-07-30T20:52:04.840Z,54.30
2018-07-30T20:54:33.690Z,54.31
2018-07-30T20:57:02.486Z,54.77
2018-07-30T20:59:31.040Z,54.06
2018-07-30T21:01:59.526Z,54.63
2018-07-30T21:04:28.484Z,54.77
2018-07-30T21:06:58.367Z,55.13
2018-07-30T21:09:27.444Z,55.07
2018-07-30T21:12:09.249Z,54.31
2018-07-30T21:14:38.273Z,54.46
2018-07-30T21:17:07.260Z,54.62
2018-07-30T21:19:36.593Z,54.30
2018-07-30T21:22:05.592Z,54.82
2018-07-30T21:24:34.635Z,54.59
2018-07-30T21:27:03.932Z,54.66
2018-07-30T21:29:32.561Z,54.79
2018-07-30T21:32:01.279Z,54.22
2018-07-30T21:34:29.928Z,54.99
2018-07-30T21:36:58.537Z,54.71
2018-07-30T21:39:27.168Z,55.40
2018-07-30T21:41:55.960Z,54.90
2018-07-30T21:44:24.607Z,54.87
2018-07-30T21:46:53.441Z,55.39
2018-07-30T21:49:22.386Z,54.63
2018-07-30T21:51:51.184Z,54.92
2018-07-30T21:54:19.981Z,55.29
2018-07-30T21:56:48.525Z,54.77
2018-07-30T21:59:17.141Z,55.25
2018-07-30T22:01:45.717Z,55.25
2018-07-30T22:04:14.455Z,55.09
2018-07-30T22:06:43.051Z,55.71
2018-07-30T22:09:11.743Z,55.83
2018-07-30T22:11:40.286Z,55.20
2018-07-30T22:14:08.973Z,55.40
2018-07-30T22:16:37.609Z,55.36
2018-07-30T22:19:06.318Z,55.75
2018-07-30T22:21:34.961Z,55.30
2018-07-30T22:24:03.649Z,55.82
2018-07-30T22:26:32.295Z,55.35
2018-07-30T22:29:00.792Z,55.29
2018-07-30T22:31:29.714Z,55.50
2018-07-30T22:33:58.271Z,55.68
2018-07-30T22:36:27.095Z,55.45
2018-07-30T22:38:55.852Z,55.37
2018-07-30T22:41:24.519Z,55.56
2018-07-30T22:43:53.000Z,55.31
2018-07-30T22:46:21.701Z,55.96
2018-07-30T22:48:50.243Z,55.77
2018-07-30T22:51:18.933Z,55.65
2018-07-30T22:53:47.536Z,55.65
2018-07-30T22:56:16.129Z,55.62
2018-07-30T22:58:44.725Z,55.65
2018-07-30T23:01:13.561Z,55.58
2018-07-30T23:03:42.236Z,55.81
2018-07-30T23:06:10.913Z,55.78
2018-07-30T23:08:39.550Z,55.64
2018-07-30T23:11:08.223Z,55.62
2018-07-30T23:13:36.804Z,55.80
2018-07-30T23:16:05.429Z,55.38
2018-07-30T23:18:33.895Z,55.57
2018-07-30T23:21:02.576Z,55.44
2018-07-30T23:23:31.173Z,55.61
2018-07-30T23:25:59.740Z,55.76
2018-07-30T23:28:28.443Z,55.66
2018-07-30T23:30:57.208Z,55.66
2018-07-30T23:33:25.684Z,55.75
2018-07-30T23:35:54.809Z,55.68
2018-07-30T23:38:23.547Z,56.06
2018-07-30T23:40:52.089Z,55.52
2018-07-30T23:43:20.751Z,55.76
2018-07-30T23:45:49.392Z,55.90
2018-07-30T23:48:18.647Z,55.75
2018-07-30T23:50:47.356Z,55.82
2018-07-30T23:53:15.968Z,55.90
2018-07-30T23:55:44.530Z,55.94
2018-07-30T23:58:13.193Z,55.91
